KRYV

Watertown Municipal Airport

Watertown, Wisconsin, USA
METAR KRYV 210415Z AUTO 00000KT 7SM CLR M03/M03 A2996 RMK AO2 T10281028
Observed Flight Rules
Jan-21 @ 04:15 UTC (23 minutes ago) Visual Flight Rules
Wind Visibility Clouds
Calm 7 miles
  • Clear skies
Temperatures Readings
Current -3°C / 27°F
Dewpoint -3°C / 27°F
Humidity 100%
Altimeter 29.96" Hg
Pressure 1015 hPa
Elevation 254
METAR KRYV 210415Z AUTO 00000KT 7SM CLR M03/M03 A2996 RMK AO2 T10281028
Observed Flight Rules
Jan-21 @ 04:15 UTC
(23 minutes ago)
VFR
Wind Visibility
Calm 7 miles
Clouds
  • Clear skies
Temperature Dewpoint
-3°C / 27°F -3°C / 27°F
Humidity Altimeter Pressure
100% 29.96" Hg 1015 hPa